Time;durP1;ratioP1;P1;durP2;ratioP2;P2;SDS_P1;SDS_P2;PMS_P1;PMS_P2;Temp;Humidity;BMP_temperature;BMP_pressure;BME280_temperature;BME280_humidity;BME280_pressure;Samples;Min_cycle;Max_cycle;Signal;HPM_P1;HPM_P2
2021/11/05 00:01:35;;;;;;;42.00;17.27;;;;;;;9.47;70.72;99533.69;6014208;23;20039;-82
2021/11/05 00:04:01;;;;;;;36.15;16.42;;;;;;;9.48;70.79;99527.50;6038933;23;20023;-83
2021/11/05 00:06:28;;;;;;;37.80;16.25;;;;;;;9.50;70.61;99535.31;6038949;23;20058;-83
2021/11/05 00:08:54;;;;;;;25.77;15.50;;;;;;;9.49;70.73;99542.31;6038563;23;20026;-83
2021/11/05 00:11:21;;;;;;;26.27;16.45;;;;;;;9.49;70.83;99538.84;6013150;23;20396;-83
2021/11/05 00:13:48;;;;;;;26.15;16.35;;;;;;;9.49;70.64;99541.47;6037034;23;20023;-86
2021/11/05 00:16:15;;;;;;;26.00;16.75;;;;;;;9.47;70.81;99544.22;6038441;23;20027;-83
2021/11/05 00:18:42;;;;;;;29.67;17.52;;;;;;;9.47;70.71;99548.59;6036696;23;20019;-83
2021/11/05 00:21:08;;;;;;;30.65;16.20;;;;;;;9.47;70.89;99549.47;6038404;23;20475;-83
2021/11/05 00:23:35;;;;;;;23.33;15.82;;;;;;;9.46;71.22;99550.38;6039092;23;20027;-83
2021/11/05 00:26:02;;;;;;;34.45;17.92;;;;;;;9.46;71.01;99566.13;6038550;23;20027;-83
2021/11/05 00:28:29;;;;;;;32.35;16.60;;;;;;;9.46;71.13;99566.13;6037995;23;20086;-82
2021/11/05 00:30:56;;;;;;;24.70;16.05;;;;;;;9.46;71.04;99566.13;6037150;23;20463;-83
2021/11/05 00:33:23;;;;;;;24.33;16.30;;;;;;;9.47;70.98;99573.13;6013601;23;20027;-84
2021/11/05 00:35:50;;;;;;;25.52;16.08;;;;;;;9.46;71.04;99571.38;6037102;23;20035;-83
2021/11/05 00:38:17;;;;;;;23.85;15.93;;;;;;;9.47;71.12;99577.50;6038504;23;20026;-83
2021/11/05 00:40:44;;;;;;;24.58;15.85;;;;;;;9.47;71.03;99580.13;6013860;23;20068;-83
2021/11/05 00:43:10;;;;;;;27.70;16.83;;;;;;;9.47;70.98;99580.13;6038775;23;20031;-82
2021/11/05 00:45:37;;;;;;;25.33;16.40;;;;;;;9.48;70.89;99579.19;6039035;23;20087;-82
2021/11/05 00:48:04;;;;;;;24.60;15.48;;;;;;;9.48;71.11;99581.81;6040565;23;20030;-82
2021/11/05 00:50:31;;;;;;;25.88;17.05;;;;;;;9.48;70.97;99582.69;6040290;23;20023;-83
2021/11/05 00:52:59;;;;;;;26.98;16.45;;;;;;;9.49;70.96;99592.25;6040582;23;20028;-82
2021/11/05 00:55:25;;;;;;;26.33;17.08;;;;;;;9.49;70.99;99597.50;6040619;23;20444;-83
2021/11/05 00:57:52;;;;;;;23.83;15.55;;;;;;;9.48;70.87;99594.97;6015454;23;20023;-82
2021/11/05 01:00:19;;;;;;;29.23;17.63;;;;;;;9.48;70.95;99601.06;6040256;23;20031;-83
2021/11/05 01:02:46;;;;;;;25.60;16.70;;;;;;;9.48;71.12;99598.44;6040589;23;20027;-83
2021/11/05 01:05:13;;;;;;;24.50;16.10;;;;;;;9.49;70.92;99594.88;6039062;23;20027;-82
2021/11/05 01:07:40;;;;;;;22.60;15.35;;;;;;;9.49;71.19;99597.50;6040034;23;20034;-83
2021/11/05 01:10:09;;;;;;;25.92;16.98;;;;;;;9.50;70.82;99593.94;6040439;23;20039;-83
2021/11/05 01:12:35;;;;;;;24.20;15.25;;;;;;;9.50;70.84;99599.19;6038483;23;20475;-84
2021/11/05 01:15:03;;;;;;;23.35;16.05;;;;;;;9.51;70.72;99600.91;6039908;23;20028;-83
2021/11/05 01:17:30;;;;;;;21.52;14.07;;;;;;;9.52;70.79;99607.84;6040133;23;20470;-83
2021/11/05 01:19:57;;;;;;;24.05;16.50;;;;;;;9.50;70.83;99604.44;6039573;23;20027;-82
2021/11/05 01:22:23;;;;;;;22.90;15.25;;;;;;;9.51;70.89;99613.19;6039843;23;20027;-84
2021/11/05 01:24:50;;;;;;;27.60;16.95;;;;;;;9.49;70.96;99613.28;6038935;23;20475;-84
2021/11/05 01:27:17;;;;;;;23.65;15.80;;;;;;;9.50;70.90;99612.34;6013887;23;20472;-83
2021/11/05 01:29:45;;;;;;;27.58;16.13;;;;;;;9.50;71.03;99614.13;6037528;23;20023;-83
2021/11/05 01:32:12;;;;;;;28.92;16.13;;;;;;;9.51;70.87;99624.56;6038983;23;20027;-83
2021/11/05 01:34:40;;;;;;;31.33;15.68;;;;;;;9.50;71.05;99620.22;6014007;23;20079;-83
2021/11/05 01:37:06;;;;;;;31.77;15.25;;;;;;;9.51;70.91;99621.94;6039290;23;20351;-82
2021/11/05 01:39:33;;;;;;;35.25;14.02;;;;;;;9.51;71.16;99631.59;6013514;23;20051;-83
2021/11/05 01:42:00;;;;;;;25.27;13.43;;;;;;;9.51;70.87;99632.44;6039321;23;20578;-82
2021/11/05 01:44:27;;;;;;;33.70;14.25;;;;;;;9.51;70.93;99635.06;6038583;23;20027;-83
2021/11/05 01:46:54;;;;;;;27.48;14.95;;;;;;;9.51;71.00;99635.06;6039022;23;20034;-83
2021/11/05 01:49:21;;;;;;;48.58;14.52;;;;;;;9.53;70.88;99634.97;6039199;23;20046;-83
2021/11/05 01:51:48;;;;;;;27.25;15.50;;;;;;;9.52;70.87;99636.75;6039369;23;20031;-83
2021/11/05 01:54:15;;;;;;;40.08;16.05;;;;;;;9.53;70.89;99648.09;6039101;23;20027;-83
2021/11/05 01:56:43;;;;;;;30.10;15.18;;;;;;;9.53;71.13;99645.47;6038624;23;20066;-83
2021/11/05 01:59:33;;;;;;;21.98;14.05;;;;;;;9.49;71.47;99646.56;6038025;23;20019;-82
2021/11/05 02:02:04;;;;;;;32.22;14.18;;;;;;;9.54;70.99;99648.97;6037879;23;20042;-83
2021/11/05 02:04:31;;;;;;;45.60;14.13;;;;;;;9.54;70.93;99651.59;6013606;23;20474;-83
2021/11/05 02:06:58;;;;;;;32.90;12.85;;;;;;;9.52;70.90;99656.91;6014088;23;20028;-83
2021/11/05 02:09:27;;;;;;;17.90;11.93;;;;;;;9.50;70.60;99662.25;6038694;23;20381;-83
2021/11/05 02:12:00;;;;;;;28.42;13.63;;;;;;;9.48;71.71;99668.53;6038743;23;20379;-82
2021/11/05 02:14:28;;;;;;;30.50;15.05;;;;;;;9.50;71.18;99672.75;6013810;23;20031;-83
2021/11/05 02:16:58;;;;;;;55.83;16.38;;;;;;;9.50;71.06;99670.13;6013685;23;20031;-83
2021/11/05 02:19:27;;;;;;;31.58;14.50;;;;;;;9.50;71.02;99678.03;6038607;23;20455;-83
2021/11/05 02:21:55;;;;;;;47.40;14.05;;;;;;;9.51;71.12;99681.50;6013863;23;20090;-83
2021/11/05 02:24:24;;;;;;;33.50;12.98;;;;;;;9.51;70.99;99684.13;6013743;23;20050;-83
2021/11/05 02:26:52;;;;;;;24.10;13.45;;;;;;;9.51;70.98;99692.03;6013742;23;20024;-83
2021/11/05 02:29:19;;;;;;;32.85;13.05;;;;;;;9.51;71.16;99699.91;6038348;23;20046;-84
2021/11/05 02:31:46;;;;;;;21.63;12.15;;;;;;;9.52;70.89;99693.72;6038735;23;20035;-83
2021/11/05 02:34:13;;;;;;;24.83;12.77;;;;;;;9.51;71.28;99689.38;6038320;23;20031;-83
2021/11/05 02:36:40;;;;;;;21.20;12.65;;;;;;;9.50;70.91;99691.16;6038709;23;20027;-83
2021/11/05 02:39:08;;;;;;;46.47;13.63;;;;;;;9.51;71.26;99700.75;6013651;23;20030;-82
2021/11/05 02:41:37;;;;;;;65.13;14.07;;;;;;;9.49;70.92;99692.09;6038317;23;20509;-83
2021/11/05 02:44:04;;;;;;;26.35;12.60;;;;;;;9.49;71.17;99701.75;6013682;23;20042;-82
2021/11/05 02:46:31;;;;;;;40.75;13.23;;;;;;;9.48;71.11;99700.91;6038348;23;20031;-82
2021/11/05 02:49:01;;;;;;;44.08;13.10;;;;;;;9.47;71.36;99704.47;6038646;23;20083;-82
2021/11/05 02:51:28;;;;;;;24.83;12.23;;;;;;;9.46;71.01;99705.38;6038449;23;20075;-82
2021/11/05 02:53:55;;;;;;;29.27;12.82;;;;;;;9.47;71.02;99704.47;6038454;23;20468;-83
2021/11/05 02:56:23;;;;;;;28.88;11.93;;;;;;;9.46;71.22;99708.03;6037282;23;20075;-82
2021/11/05 02:58:51;;;;;;;42.47;14.10;;;;;;;9.46;71.25;99723.78;6038231;23;20031;-83
2021/11/05 03:01:18;;;;;;;25.50;14.05;;;;;;;9.45;71.09;99714.22;6037939;23;20468;-83
2021/11/05 03:03:45;;;;;;;22.05;12.80;;;;;;;9.46;71.14;99718.53;6036294;23;20031;-83
2021/11/05 03:06:12;;;;;;;21.95;12.80;;;;;;;9.46;71.05;99722.94;6038474;23;20030;-83
2021/11/05 03:08:39;;;;;;;24.85;14.40;;;;;;;9.46;71.12;99723.78;6013218;23;20071;-83
2021/11/05 03:11:12;;;;;;;54.33;15.15;;;;;;;9.45;70.91;99732.59;6037892;23;20027;-82
2021/11/05 03:13:41;;;;;;;32.35;14.48;;;;;;;9.45;71.09;99726.50;6038332;23;20061;-83
2021/11/05 03:16:08;;;;;;;51.97;15.55;;;;;;;9.45;71.25;99732.59;6037853;23;20082;-83
2021/11/05 03:18:39;;;;;;;76.85;16.60;;;;;;;9.45;71.23;99732.59;6012817;23;20059;-83
2021/11/05 03:21:06;;;;;;;43.75;15.02;;;;;;;9.46;71.24;99736.91;6038461;23;20031;-83
2021/11/05 03:23:34;;;;;;;57.97;15.10;;;;;;;9.45;71.13;99731.75;6038413;23;20027;-83
2021/11/05 03:26:01;;;;;;;67.78;15.55;;;;;;;9.45;71.23;99729.97;6038105;23;20038;-83
2021/11/05 03:28:27;;;;;;;55.65;15.55;;;;;;;9.46;71.25;99726.41;6038130;23;20031;-83
2021/11/05 03:30:54;;;;;;;62.58;14.25;;;;;;;9.46;70.96;99736.91;6036611;23;20078;-84
2021/11/05 03:33:20;;;;;;;61.13;14.93;;;;;;;9.44;70.97;99733.53;6037297;23;20404;-83
2021/11/05 03:35:47;;;;;;;51.90;13.75;;;;;;;9.43;70.99;99731.84;6011611;23;20035;-83
2021/11/05 03:38:14;;;;;;;77.72;14.68;;;;;;;9.41;70.80;99740.75;6012381;23;20031;-83
2021/11/05 03:40:40;;;;;;;41.28;13.55;;;;;;;9.39;71.02;99732.94;6037924;23;20337;-83
2021/11/05 03:43:07;;;;;;;56.30;11.93;;;;;;;9.37;71.02;99740.03;6037800;23;20038;-84
2021/11/05 03:45:34;;;;;;;97.95;13.65;;;;;;;9.36;71.16;99751.47;6013359;23;20300;-83
2021/11/05 03:48:00;;;;;;;56.15;12.45;;;;;;;9.35;71.20;99757.66;6012565;23;20471;-84
2021/11/05 03:50:27;;;;;;;23.73;12.55;;;;;;;9.34;71.18;99755.94;6036188;23;20031;-82
2021/11/05 03:52:54;;;;;;;26.98;12.68;;;;;;;9.33;71.14;99765.63;6038194;23;20030;-83
2021/11/05 03:55:21;;;;;;;15.43;10.57;;;;;;;9.32;70.88;99768.31;6038114;23;20031;-83
2021/11/05 03:57:47;;;;;;;41.28;13.13;;;;;;;9.31;71.04;99769.25;6035882;23;20074;-84
2021/11/05 04:00:15;;;;;;;57.20;11.32;;;;;;;9.29;71.16;99778.97;6037473;23;20023;-82
2021/11/05 04:02:41;;;;;;;34.97;12.13;;;;;;;9.28;70.92;99777.28;6038227;23;20031;-83
2021/11/05 04:05:10;;;;;;;61.15;12.05;;;;;;;9.27;71.15;99791.38;6038022;23;20083;-83
2021/11/05 04:07:36;;;;;;;80.32;12.75;;;;;;;9.25;71.22;99791.44;6012851;23;20027;-83
2021/11/05 04:10:04;;;;;;;57.33;12.15;;;;;;;9.25;71.30;99794.06;6037226;23;20482;-83
2021/11/05 04:12:30;;;;;;;126.07;13.65;;;;;;;9.21;71.25;99803.88;6012694;23;20031;-83
2021/11/05 04:14:57;;;;;;;41.90;10.90;;;;;;;9.21;71.31;99811.75;6038015;23;20347;-83
2021/11/05 04:17:24;;;;;;;29.92;11.05;;;;;;;9.20;71.08;99822.34;6013059;23;20030;-82
2021/11/05 04:19:51;;;;;;;23.25;10.50;;;;;;;9.19;71.31;99818.84;6037506;23;20027;-84
2021/11/05 04:22:18;;;;;;;64.95;10.90;;;;;;;9.19;71.34;99826.72;6015006;23;20031;-84
2021/11/05 04:24:44;;;;;;;35.70;9.98;;;;;;;9.19;71.41;99826.72;6040083;23;20033;-83
2021/11/05 04:27:11;;;;;;;41.53;10.30;;;;;;;9.19;71.22;99823.28;6039726;23;20030;-83
2021/11/05 04:29:38;;;;;;;38.70;9.65;;;;;;;9.20;71.37;99833.69;6013792;23;20031;-83
2021/11/05 04:32:05;;;;;;;24.58;10.10;;;;;;;9.21;71.68;99834.53;6039651;23;20038;-83
2021/11/05 04:34:32;;;;;;;71.07;11.23;;;;;;;9.23;71.60;99833.53;6014696;23;20348;-83
2021/11/05 04:36:59;;;;;;;44.00;10.75;;;;;;;9.25;71.74;99838.72;6038239;23;20023;-83
2021/11/05 04:39:26;;;;;;;31.33;9.30;;;;;;;9.27;71.69;99836.00;6039250;23;20460;-83
2021/11/05 04:41:53;;;;;;;42.63;10.15;;;;;;;9.28;71.61;99842.97;6039805;23;20027;-83
2021/11/05 04:44:19;;;;;;;111.20;11.68;;;;;;;9.29;71.51;99848.13;6014976;23;20027;-83
2021/11/05 04:46:47;;;;;;;37.17;7.95;;;;;;;9.29;71.28;99847.28;6014672;23;20396;-83
2021/11/05 04:49:14;;;;;;;28.08;8.18;;;;;;;9.28;71.27;99854.31;6014331;23;20475;-83
2021/11/05 04:51:41;;;;;;;18.98;7.38;;;;;;;9.27;71.23;99868.38;6014181;23;20035;-83
2021/11/05 04:54:08;;;;;;;18.42;8.30;;;;;;;9.27;71.38;99862.28;6040453;23;20027;-83
2021/11/05 04:56:35;;;;;;;27.38;8.73;;;;;;;9.25;71.45;99863.22;6015810;23;20043;-83
2021/11/05 04:59:03;;;;;;;17.40;7.85;;;;;;;9.24;71.44;99874.63;6015459;23;20023;-83
2021/11/05 05:01:30;;;;;;;23.98;8.88;;;;;;;9.23;71.41;99878.19;6015122;23;20089;-84
2021/11/05 05:03:56;;;;;;;37.72;9.82;;;;;;;9.23;71.46;99875.56;6015354;23;20070;-83
2021/11/05 05:06:23;;;;;;;55.22;9.40;;;;;;;9.23;71.75;99879.94;6015377;23;20027;-84
2021/11/05 05:08:50;;;;;;;27.83;8.75;;;;;;;9.23;71.38;99886.06;6038108;23;20471;-84
2021/11/05 05:11:16;;;;;;;38.90;8.35;;;;;;;9.24;71.78;99886.94;6014927;23;20034;-84
2021/11/05 05:13:43;;;;;;;31.40;8.23;;;;;;;9.24;71.56;99884.31;6040989;23;20027;-83
2021/11/05 05:16:10;;;;;;;14.40;8.10;;;;;;;9.24;71.74;99892.19;6040133;23;20329;-84
2021/11/05 05:18:37;;;;;;;19.73;7.75;;;;;;;9.24;71.85;99903.50;6040010;23;20034;-83
2021/11/05 05:21:05;;;;;;;28.42;8.07;;;;;;;9.23;71.59;99906.22;6039878;23;20027;-85
2021/11/05 05:23:32;;;;;;;46.95;8.50;;;;;;;9.24;71.95;99913.19;6014902;23;20027;-84
2021/11/05 05:25:59;;;;;;;59.75;7.90;;;;;;;9.24;71.61;99914.03;6039583;23;20027;-84
2021/11/05 05:28:26;;;;;;;68.38;9.13;;;;;;;9.24;71.79;99921.91;6039512;23;20336;-84
2021/11/05 05:30:53;;;;;;;32.67;7.50;;;;;;;9.24;71.80;99921.91;6039278;23;20023;-83
2021/11/05 05:33:20;;;;;;;63.70;8.57;;;;;;;9.25;71.73;99926.25;6014478;23;20026;-83
2021/11/05 05:35:47;;;;;;;66.40;8.32;;;;;;;9.27;71.97;99938.47;6015074;23;20079;-82
2021/11/05 05:38:13;;;;;;;75.88;9.00;;;;;;;9.27;71.81;99933.19;6014469;23;20031;-82
2021/11/05 05:40:42;;;;;;;86.13;9.07;;;;;;;9.28;71.82;99922.63;6040638;23;20032;-83
2021/11/05 05:43:09;;;;;;;53.53;8.93;;;;;;;9.28;71.50;99927.00;6039978;23;20035;-83
2021/11/05 05:45:35;;;;;;;98.15;9.60;;;;;;;9.27;71.61;99938.47;6015084;23;20031;-83
2021/11/05 05:48:02;;;;;;;27.20;6.97;;;;;;;9.26;71.82;99940.22;6039205;23;20023;-83
2021/11/05 05:50:29;;;;;;;67.00;10.50;;;;;;;9.25;71.87;99942.00;6037549;23;20030;-83
2021/11/05 05:52:55;;;;;;;11.77;7.15;;;;;;;9.26;71.77;99942.84;6015270;23;20043;-85
2021/11/05 05:55:30;;;;;;;21.38;7.45;;;;;;;9.24;71.82;99942.91;6037347;23;20027;-84
2021/11/05 05:58:01;;;;;;;13.18;7.13;;;;;;;9.27;71.86;99943.72;6037919;23;20027;-83
2021/11/05 06:00:29;;;;;;;23.10;8.13;;;;;;;9.28;71.91;99948.91;6038019;23;20055;-83
2021/11/05 06:02:56;;;;;;;27.35;7.57;;;;;;;9.30;71.91;99951.44;6039806;23;20028;-83
2021/11/05 06:05:23;;;;;;;71.45;9.02;;;;;;;9.31;71.83;99955.78;6040098;23;20078;-83
2021/11/05 06:07:52;;;;;;;34.92;7.35;;;;;;;9.31;71.85;99964.47;6040183;23;20023;-83
2021/11/05 06:10:19;;;;;;;78.32;8.18;;;;;;;9.33;71.86;99972.28;6014707;23;20027;-83
2021/11/05 06:12:46;;;;;;;31.63;6.90;;;;;;;9.33;72.01;99972.28;6038305;23;20034;-82
2021/11/05 06:15:12;;;;;;;31.65;7.03;;;;;;;9.34;71.94;99974.00;6040168;23;20028;-82
2021/11/05 06:17:39;;;;;;;36.00;8.43;;;;;;;9.32;71.69;99971.47;6040803;23;20023;-83
2021/11/05 06:20:07;;;;;;;49.70;6.57;;;;;;;9.33;71.81;99981.03;6039667;23;20027;-82
2021/11/05 06:22:33;;;;;;;38.05;6.80;;;;;;;9.33;71.77;99988.06;6040267;23;20023;-83
2021/11/05 06:25:01;;;;;;;116.20;9.48;;;;;;;9.32;71.94;99987.22;6040178;23;20046;-82
2021/11/05 06:27:28;;;;;;;60.95;7.32;;;;;;;9.33;71.88;99990.69;6038041;23;20027;-82
2021/11/05 06:29:55;;;;;;;40.35;6.60;;;;;;;9.33;71.82;99995.94;6014508;23;20056;-82
2021/11/05 06:32:22;;;;;;;66.90;6.60;;;;;;;9.32;71.73;100002.13;6015002;23;20027;-82
2021/11/05 06:34:50;;;;;;;91.78;8.20;;;;;;;9.33;71.88;100006.44;6038216;23;20412;-82
2021/11/05 06:37:17;;;;;;;96.30;8.20;;;;;;;9.35;71.85;100004.63;6015353;23;20034;-82
2021/11/05 06:39:44;;;;;;;50.15;6.68;;;;;;;9.33;71.96;100006.44;6015007;23;20110;-82
2021/11/05 06:42:14;;;;;;;151.07;8.93;;;;;;;9.34;71.91;100011.63;6015742;23;20027;-83
2021/11/05 06:44:41;;;;;;;113.90;8.25;;;;;;;9.33;71.93;100016.94;6039185;23;20035;-83
2021/11/05 06:47:07;;;;;;;105.43;8.02;;;;;;;9.32;71.74;100021.38;6040794;23;20031;-84
2021/11/05 06:49:34;;;;;;;87.03;7.45;;;;;;;9.32;72.25;100020.50;6039439;23;20024;-82
2021/11/05 06:52:01;;;;;;;41.92;6.00;;;;;;;9.31;72.01;100030.16;6039940;23;20031;-83
2021/11/05 06:54:27;;;;;;;73.43;6.88;;;;;;;9.32;72.23;100037.13;6040537;23;20027;-83
2021/11/05 06:56:54;;;;;;;14.80;5.30;;;;;;;9.33;72.29;100037.97;6037412;23;20083;-82
2021/11/05 06:59:20;;;;;;;38.28;6.45;;;;;;;9.34;72.21;100050.19;6039555;23;20031;-83
2021/11/05 07:01:47;;;;;;;47.42;7.13;;;;;;;9.35;72.19;100050.09;6039198;23;20034;-83
2021/11/05 07:04:14;;;;;;;16.50;6.68;;;;;;;9.37;72.33;100047.41;6013831;23;20364;-82
2021/11/05 07:06:45;;;;;;;16.92;6.05;;;;;;;9.38;72.23;100057.84;6039322;23;20034;-82
2021/11/05 07:09:16;;;;;;;10.88;5.85;;;;;;;9.40;72.62;100052.53;6038056;23;20479;-83
2021/11/05 07:11:44;;;;;;;8.23;5.43;;;;;;;9.44;72.50;100061.97;6013775;23;20027;-82
2021/11/05 07:14:13;;;;;;;9.10;5.25;;;;;;;9.46;72.37;100062.72;6040064;23;20035;-82
2021/11/05 07:16:39;;;;;;;25.33;5.78;;;;;;;9.50;72.23;100069.56;6037528;23;20031;-82
2021/11/05 07:19:06;;;;;;;38.30;6.60;;;;;;;9.51;72.12;100068.66;6038958;23;20079;-82
2021/11/05 07:21:33;;;;;;;12.82;5.72;;;;;;;9.52;72.06;100070.34;6039119;23;20023;-82
2021/11/05 07:24:02;;;;;;;9.90;5.30;;;;;;;9.54;72.23;100077.28;6039862;23;20488;-82
2021/11/05 07:26:36;;;;;;;7.30;5.63;;;;;;;9.52;72.10;100090.50;6038831;23;20092;-82
2021/11/05 07:29:05;;;;;;;10.52;5.45;;;;;;;9.56;72.46;100097.31;6039355;23;20039;-83
2021/11/05 07:31:32;;;;;;;8.27;5.32;;;;;;;9.57;72.29;100088.50;6038563;23;20027;-82
2021/11/05 07:33:59;;;;;;;7.50;4.82;;;;;;;9.59;72.51;100094.56;6012690;23;20027;-83
2021/11/05 07:36:26;;;;;;;6.88;4.47;;;;;;;9.62;72.46;100099.69;6040058;23;20094;-83
2021/11/05 07:38:53;;;;;;;8.82;5.10;;;;;;;9.66;72.11;100103.00;6041132;23;20050;-85
2021/11/05 07:41:20;;;;;;;7.70;4.88;;;;;;;9.69;72.66;100102.88;6041480;23;20714;-83
2021/11/05 07:43:47;;;;;;;10.80;4.90;;;;;;;9.74;72.86;100115.78;6015789;23;20034;-83
2021/11/05 07:46:14;;;;;;;11.80;5.28;;;;;;;9.80;72.88;100114.63;6041304;23;20078;-83
2021/11/05 07:48:41;;;;;;;9.18;5.65;;;;;;;9.84;72.74;100121.44;6040426;23;20035;-84
2021/11/05 07:51:08;;;;;;;9.23;4.28;;;;;;;9.89;72.88;100122.06;6041127;23;20023;-84
2021/11/05 07:53:34;;;;;;;7.47;4.88;;;;;;;9.94;72.64;100130.59;6041033;23;20023;-83
2021/11/05 07:56:01;;;;;;;10.52;5.28;;;;;;;9.98;72.46;100140.03;6038739;23;20031;-83
2021/11/05 07:58:27;;;;;;;7.82;4.88;;;;;;;10.03;72.49;100138.03;6039694;23;20324;-84
2021/11/05 08:00:54;;;;;;;7.57;4.90;;;;;;;10.06;72.38;100146.69;6037468;23;20459;-84
2021/11/05 08:03:22;;;;;;;9.40;5.28;;;;;;;10.07;72.12;100149.25;6037533;23;20023;-83
2021/11/05 08:05:49;;;;;;;8.73;5.57;;;;;;;10.08;71.97;100155.34;6040201;23;20030;-83
2021/11/05 08:08:16;;;;;;;10.77;5.47;;;;;;;10.08;71.78;100155.34;6039159;23;20031;-82
2021/11/05 08:10:43;;;;;;;8.90;5.20;;;;;;;10.08;71.96;100155.34;6039353;23;20341;-85
2021/11/05 08:13:11;;;;;;;10.05;4.95;;;;;;;10.08;71.97;100161.47;6038055;23;20046;-83
2021/11/05 08:15:37;;;;;;;9.50;5.30;;;;;;;10.10;72.01;100158.78;6037152;23;20030;-83
2021/11/05 08:18:04;;;;;;;7.97;5.07;;;;;;;10.10;72.24;100158.78;6039021;23;20113;-82
2021/11/05 08:20:31;;;;;;;6.85;4.88;;;;;;;10.11;72.24;100166.59;6037590;23;20020;-83
2021/11/05 08:22:57;;;;;;;7.55;5.05;;;;;;;10.14;72.22;100168.22;6039832;23;20046;-82
2021/11/05 08:25:26;;;;;;;7.75;4.80;;;;;;;10.15;72.11;100172.56;6038787;23;20027;-83
2021/11/05 08:27:53;;;;;;;9.75;5.55;;;;;;;10.19;72.54;100174.13;6040324;23;20031;-83
2021/11/05 08:30:23;;;;;;;8.10;5.40;;;;;;;10.20;72.42;100178.44;6013180;23;20023;-84
2021/11/05 08:32:53;;;;;;;8.88;5.00;;;;;;;10.24;72.51;100190.53;6037991;23;20031;-83
2021/11/05 08:35:22;;;;;;;8.15;5.07;;;;;;;10.29;72.72;100185.03;6039548;23;20024;-85
2021/11/05 08:37:50;;;;;;;7.57;4.95;;;;;;;10.34;72.52;100187.44;6014503;23;20083;-84
2021/11/05 08:40:17;;;;;;;7.35;4.55;;;;;;;10.38;72.74;100195.13;6014123;23;20396;-83
2021/11/05 08:42:45;;;;;;;8.77;5.15;;;;;;;10.41;72.43;100186.22;6039696;23;20031;-83
2021/11/05 08:45:11;;;;;;;7.43;4.80;;;;;;;10.43;72.16;100198.38;6039649;23;20208;-84
2021/11/05 08:47:40;;;;;;;7.28;5.25;;;;;;;10.46;72.24;100202.66;6037400;23;20031;-84
2021/11/05 08:50:12;;;;;;;7.30;4.65;;;;;;;10.48;72.09;100205.22;6038667;23;20398;-84
2021/11/05 08:52:39;;;;;;;6.82;4.72;;;;;;;10.51;72.39;100216.44;6039393;23;20455;-82
2021/11/05 08:55:08;;;;;;;10.18;5.15;;;;;;;10.54;72.22;100215.44;6038694;23;20420;-84
2021/11/05 08:57:36;;;;;;;8.85;5.15;;;;;;;10.58;72.36;100213.50;6038745;23;20039;-84
2021/11/05 09:00:08;;;;;;;8.20;4.95;;;;;;;10.62;72.35;100222.97;6038693;23;20038;-83
2021/11/05 09:02:35;;;;;;;9.23;4.63;;;;;;;10.66;72.13;100224.53;6039043;23;20035;-84
2021/11/05 09:05:06;;;;;;;7.60;4.60;;;;;;;10.71;72.17;100221.63;6015004;23;20459;-83
2021/11/05 09:07:33;;;;;;;7.88;4.57;;;;;;;10.73;72.01;100225.91;6040190;23;20032;-82
2021/11/05 09:10:00;;;;;;;7.97;4.40;;;;;;;10.76;72.08;100232.81;6038843;23;20024;-84
2021/11/05 09:12:28;;;;;;;7.30;4.70;;;;;;;10.79;72.45;100238.78;6039985;23;20034;-83
2021/11/05 09:14:55;;;;;;;7.97;5.15;;;;;;;10.85;72.53;100239.38;6039267;23;20023;-82
2021/11/05 09:17:22;;;;;;;7.60;4.68;;;;;;;10.90;72.34;100248.75;6040996;23;20034;-83
2021/11/05 09:19:48;;;;;;;7.85;4.45;;;;;;;10.95;72.29;100253.78;6040089;23;20027;-82
2021/11/05 09:22:15;;;;;;;5.80;4.15;;;;;;;10.99;71.81;100257.97;6040106;23;20027;-83
2021/11/05 09:24:41;;;;;;;7.85;4.43;;;;;;;11.02;72.05;100263.09;6039084;23;20416;-83
2021/11/05 09:27:09;;;;;;;7.35;4.63;;;;;;;11.07;71.98;100262.88;6039221;23;20356;-85
2021/11/05 09:29:36;;;;;;;10.27;5.20;;;;;;;11.10;71.93;100262.69;6040586;23;20023;-84
2021/11/05 09:32:03;;;;;;;11.52;5.32;;;;;;;11.14;71.74;100276.56;6040714;23;20408;-83
2021/11/05 09:34:31;;;;;;;6.72;4.35;;;;;;;11.15;71.76;100276.50;6015030;23;20023;-83
2021/11/05 09:37:04;;;;;;;9.45;4.82;;;;;;;11.16;71.48;100282.59;6015185;23;20038;-85
2021/11/05 09:39:30;;;;;;;7.55;4.50;;;;;;;11.19;71.70;100279.81;6040101;23;20023;-84
2021/11/05 09:41:59;;;;;;;11.02;5.18;;;;;;;11.20;71.53;100281.53;6039758;23;20024;-85
2021/11/05 09:44:28;;;;;;;10.77;4.85;;;;;;;11.22;71.55;100279.69;6015501;23;20038;-84
2021/11/05 09:47:01;;;;;;;10.00;4.80;;;;;;;11.25;71.74;100279.50;6040222;23;20463;-84
2021/11/05 09:49:28;;;;;;;8.13;4.70;;;;;;;11.29;71.85;100282.84;6041051;23;20030;-84
2021/11/05 09:51:57;;;;;;;8.38;4.38;;;;;;;11.32;71.84;100286.16;6038408;23;20384;-84
2021/11/05 09:54:25;;;;;;;8.50;4.63;;;;;;;11.36;71.66;100292.13;6040559;23;20031;-84
2021/11/05 09:56:52;;;;;;;10.70;4.57;;;;;;;11.39;71.71;100296.38;6038497;23;20098;-84
2021/11/05 09:59:19;;;;;;;7.53;4.65;;;;;;;11.40;71.45;100304.22;6039699;23;20404;-85
2021/11/05 10:01:47;;;;;;;10.75;4.88;;;;;;;11.43;71.57;100311.09;6014450;23;20042;-83
2021/11/05 10:04:14;;;;;;;7.65;4.75;;;;;;;11.45;71.56;100317.16;6039785;23;20027;-84
2021/11/05 10:07:02;;;;;;;10.13;4.50;;;;;;;11.44;71.46;100316.31;6016141;23;20027;-83
2021/11/05 10:09:52;;;;;;;7.97;3.92;;;;;;;11.47;71.17;100320.56;6039112;23;20024;-84
2021/11/05 10:12:25;;;;;;;7.57;4.45;;;;;;;11.52;71.25;100323.84;6001024;23;20471;-84
2021/11/05 10:15:05;;;;;;;9.15;4.13;;;;;;;11.54;71.36;100319.31;6038614;23;20023;-84
2021/11/05 10:17:32;;;;;;;6.43;4.63;;;;;;;11.60;71.51;100321.63;6039976;23;20023;-84
2021/11/05 10:20:06;;;;;;;8.10;4.13;;;;;;;11.63;71.46;100330.31;6037589;23;20336;-84
2021/11/05 10:22:47;;;;;;;;;;;;;;;11.66;71.42;100328.38;6041108;23;20027;-83
2021/11/05 10:25:37;;;;;;;6.93;3.75;;;;;;;11.71;71.02;100322.88;6015112;23;19944;-84
2021/11/05 10:28:10;;;;;;;7.38;4.82;;;;;;;11.76;71.02;100326.09;6038550;23;20356;-83
2021/11/05 10:30:48;;;;;;;7.80;4.43;;;;;;;11.78;70.97;100321.59;6013913;23;20034;-85
2021/11/05 10:33:17;;;;;;;10.80;4.05;;;;;;;11.82;71.05;100324.94;6039044;23;20352;-85
2021/11/05 10:35:47;;;;;;;6.35;4.18;;;;;;;11.83;71.08;100329.28;6039244;23;20038;-85
2021/11/05 10:38:31;;;;;;;10.90;4.45;;;;;;;11.86;71.16;100334.38;6038718;23;20027;-85
2021/11/05 10:41:00;;;;;;;7.78;4.50;;;;;;;11.89;71.02;100342.13;6039296;23;20340;-84
2021/11/05 10:43:33;;;;;;;8.30;4.60;;;;;;;11.90;71.01;100345.63;6039607;23;20396;-84
2021/11/05 10:46:00;;;;;;;9.02;4.75;;;;;;;11.96;71.12;100347.94;6040252;23;20023;-85
2021/11/05 10:48:30;;;;;;;5.93;3.53;;;;;;;11.99;70.63;100353.91;6039150;23;20137;-83
2021/11/05 10:51:03;;;;;;;6.75;4.50;;;;;;;11.99;70.59;100348.63;6039604;23;20027;-83
2021/11/05 10:53:38;;;;;;;7.15;3.95;;;;;;;12.02;70.68;100354.66;6013717;23;20030;-84
2021/11/05 10:56:07;;;;;;;6.80;3.78;;;;;;;12.04;70.65;100360.72;6039716;23;20027;-83
2021/11/05 10:58:40;;;;;;;6.15;4.00;;;;;;;12.04;69.95;100364.19;6039726;23;20047;-85
2021/11/05 11:01:15;;;;;;;5.78;3.88;;;;;;;12.05;70.19;100351.88;6014075;23;20027;-84
2021/11/05 11:03:47;;;;;;;;;;;;;;;12.05;70.11;100358.03;6039555;23;20031;-85
2021/11/05 11:06:18;;;;;;;6.03;3.83;;;;;;;12.10;70.35;100370.97;6039317;23;19941;-85
2021/11/05 11:08:51;;;;;;;6.68;3.72;;;;;;;12.08;70.16;100365.75;6039040;23;20039;-86
2021/11/05 11:11:22;;;;;;;6.85;3.50;;;;;;;12.10;70.63;100369.19;6037274;23;20058;-83
2021/11/05 11:13:54;;;;;;;4.88;3.47;;;;;;;12.12;70.63;100363.84;6039691;23;20035;-82
2021/11/05 11:16:30;;;;;;;6.50;3.80;;;;;;;12.14;70.73;100369.88;6037996;23;20031;-84
2021/11/05 11:18:58;;;;;;;7.18;3.95;;;;;;;12.21;71.03;100365.97;6014275;23;20463;-84
2021/11/05 11:21:35;;;;;;;8.35;3.92;;;;;;;12.24;70.47;100372.88;6013903;23;20027;-84
2021/11/05 11:24:04;;;;;;;5.65;3.92;;;;;;;12.31;70.85;100376.03;6038898;23;20027;-83
2021/11/05 11:26:32;;;;;;;6.47;3.75;;;;;;;12.37;71.00;100379.19;6037176;23;20027;-84
2021/11/05 11:28:59;;;;;;;6.70;3.55;;;;;;;12.45;71.23;100385.84;6036849;23;20467;-84
2021/11/05 11:31:26;;;;;;;9.13;4.30;;;;;;;12.52;71.10;100387.19;6014412;23;20023;-82